Latest Weather Observations for Douglas River

IDD60801

Issued at 11:21 am CST Thursday 24 May 2018 (issued every 10 minutes, with the page automatically refreshed every 10 minutes)

About weather observations | Map of weather stations | Latest weather observations for NT | Other Formats
Station Details ID: 014901 Name: DOUGLAS RIVER RESEARCH FARM Lat: -13.83 Lon: 131.19 Height: 42.8 m
Data from the previous 72 hours. | See also: Recent months at Douglas River
Date/Time
CST
Temp
°C
App
Temp
°C
Dew
Point
°C
Rel
Hum
%
Delta-T
°C
Wind Press
QNH
hPa
Press
MSL
hPa
Rain since
9am
mm
Dir  Spd
km/h
Gust
km/h
Spd
kts
Gust
kts
24/11:00am 29.2 25.5 9.3 29 11.1 SSE 19 24 10 13 1013.4 1013.2 0.0
24/10:30am 27.9 24.1 9.2 31 10.3 SSE 19 24 10 13 1013.8 1013.6 0.0
24/10:00am 26.5 23.2 9.4 34 9.4 SSE 17 24 9 13 1014.1 1013.9 0.0
24/09:30am 24.0 20.5 8.8 38 8.2 SSE 17 22 9 12 1014.3 1014.1 0.0
24/09:00am 22.6 19.1 8.7 41 7.4 SSE 17 22 9 12 1014.2 1014.0 0.0
24/08:30am 21.1 18.9 9.4 47 6.3 SSE 11 15 6 8 1014.1 1013.9 0.0
24/08:00am 18.2 17.3 10.8 62 4.0 SE 6 7 3 4 1014.0 1013.8 0.0
24/07:30am 15.9 14.6 10.0 68 3.1 SE 7 7 4 4 1013.8 1013.6 0.0
24/07:00am 15.3 13.9 9.7 69 2.9 SSE 7 9 4 5 1013.4 1013.2 0.0
24/06:30am 15.6 14.3 9.9 69 3.0 SE 7 9 4 5 1013.1 1012.9 0.0
24/06:00am 15.6 15.2 9.7 68 3.1 S 2 7 1 4 1012.9 1012.7 0.0
24/05:30am 16.2 15.1 10.1 67 3.2 SE 6 7 3 4 1012.7 1012.5 0.0
24/05:00am 16.2 15.1 10.1 67 3.2 SE 6 7 3 4 1012.7 1012.5 0.0
24/04:30am 16.4 16.6 10.7 69 3.0 CALM 0 0 0 0 1012.4 1012.2 0.0
24/04:00am 15.9 15.2 11.5 75 2.4 S 6 7 3 4 1012.3 1012.1 0.0
24/03:30am 14.6 14.8 10.6 77 2.1 CALM 0 0 0 0 1012.3 1012.1 0.0
24/03:00am 16.3 15.2 10.8 70 2.9 ENE 7 11 4 6 1012.2 1012.0 0.0
24/02:30am 17.4 16.4 11.0 66 3.5 ESE 7 9 4 5 1012.8 1012.6 0.0
24/02:00am 17.7 16.6 10.8 64 3.7 E 7 9 4 5 1013.0 1012.8 0.0
24/01:30am 18.4 17.3 10.5 60 4.2 SE 7 7 4 4 1013.3 1013.1 0.0
24/01:00am 18.6 17.7 10.7 60 4.3 ESE 6 7 3 4 1013.4 1013.2 0.0
24/12:30am 19.0 18.1 10.6 58 4.5 SE 6 7 3 4 1013.5 1013.3 0.0
24/12:00am 19.1 18.2 10.6 58 4.6 E 6 7 3 4 1013.6 1013.4 0.0
 
Date/Time
CST
Temp
°C
App
Temp
°C
Dew
Point
°C
Rel
Hum
%
Delta-T
°C
Wind Press
QNH
hPa
Press
MSL
hPa
Rain since
9am
mm
Dir  Spd
km/h
Gust
km/h
Spd
kts
Gust
kts
23/11:30pm 19.4 17.9 10.7 57 4.7 SE 9 11 5 6 1013.7 1013.5 0.0
23/11:00pm 18.6 16.4 10.7 60 4.3 SSE 13 13 7 7 1013.8 1013.6 0.0
23/10:30pm 19.1 17.2 10.6 58 4.6 SSE 11 11 6 6 1013.9 1013.7 0.0
23/10:00pm 19.6 17.7 10.6 56 4.9 SSE 11 13 6 7 1014.0 1013.8 0.0
23/09:30pm 20.6 18.3 10.4 52 5.5 SSE 13 15 7 8 1014.0 1013.8 0.0
23/09:00pm 20.8 18.5 10.6 52 5.6 SSE 13 15 7 8 1013.9 1013.7 0.0
23/08:30pm 21.7 19.4 10.5 49 6.1 SSE 13 13 7 7 1013.6 1013.4 0.0
23/08:00pm 21.8 19.5 10.3 48 6.3 SSE 13 13 7 7 1013.3 1013.1 0.0
23/07:30pm 22.7 20.7 10.2 45 6.8 SSE 11 13 6 7 1013.0 1012.8 0.0
23/07:00pm 23.5 20.9 9.5 41 7.6 SSE 13 15 7 8 1012.6 1012.4 0.0
23/06:30pm 25.1 22.4 9.0 36 8.7 SSE 13 15 7 8 1012.3 1012.1 0.0
23/06:00pm 29.2 25.6 8.3 27 11.5 SE 17 20 9 11 1011.9 1011.7 0.0
23/05:30pm 30.8 26.1 7.9 24 12.6 ESE 22 26 12 14 1011.7 1011.5 0.0
23/05:00pm 31.6 27.0 8.0 23 13.0 ESE 22 26 12 14 1011.4 1011.2 0.0
23/04:30pm 32.5 28.4 8.0 22 13.6 SE 19 26 10 14 1011.2 1011.0 0.0
23/04:00pm 32.3 28.2 7.9 22 13.5 SE 19 28 10 15 1011.3 1011.1 0.0
23/03:30pm 32.2 27.9 7.1 21 13.7 SE 19 28 10 15 1011.2 1011.0 0.0
23/03:00pm 32.6 27.8 7.4 21 13.9 SE 22 32 12 17 1011.5 1011.3 0.0
23/02:30pm 32.0 26.9 6.2 20 13.9 SE 22 35 12 19 1011.8 1011.6 0.0
23/02:00pm 32.1 27.4 7.7 22 13.4 SE 22 33 12 18 1012.3 1012.1 0.0
23/01:30pm 31.3 26.3 6.4 21 13.4 SE 22 32 12 17 1012.7 1012.5 0.0
23/01:00pm 30.8 25.5 6.6 22 13.0 SE 24 35 13 19 1013.3 1013.1 0.0
23/12:30pm 30.7 24.6 6.6 22 12.9 ESE 28 37 15 20 1014.0 1013.8 0.0
23/12:00pm 29.5 23.2 7.4 25 12.0 SE 30 39 16 21 1014.5 1014.3 0.0
23/11:30am 29.2 23.2 7.2 25 11.8 ESE 28 39 15 21 1015.1 1014.9 0.0
23/11:00am 28.3 22.8 7.5 27 11.2 SE 26 39 14 21 1015.8 1015.6 0.0
23/10:30am 27.7 22.9 9.0 31 10.3 SE 24 33 13 18 1016.0 1015.8 0.0
23/10:00am 25.9 21.0 8.4 33 9.4 SE 24 35 13 19 1016.2 1016.0 0.0
23/09:30am 24.5 20.4 8.5 36 8.6 SSE 20 26 11 14 1016.4 1016.2 0.0
23/09:00am 22.9 18.9 8.2 39 7.8 SE 19 24 10 13 1016.4 1016.2 0.0
23/08:30am 21.1 17.9 8.4 44 6.7 SSE 15 20 8 11 1016.1 1015.9 0.0
23/08:00am 18.3 16.2 9.6 57 4.6 SSE 11 13 6 7 1016.0 1015.8 0.0
23/07:30am 17.1 15.0 9.8 62 3.8 SE 11 15 6 8 1015.6 1015.4 0.0
23/07:00am 16.2 14.1 9.6 65 3.4 SE 11 13 6 7 1015.2 1015.0 0.0
23/06:30am 15.8 13.2 9.5 66 3.3 SE 13 13 7 7 1014.7 1014.5 0.0
23/06:00am 16.2 14.0 9.4 64 3.5 SSE 11 13 6 7 1014.5 1014.3 0.0
23/05:30am 17.3 16.1 9.7 61 4.0 ESE 6 9 3 5 1013.9 1013.7 0.0
23/05:00am 17.9 16.6 9.8 59 4.3 SE 7 9 4 5 1013.9 1013.7 0.0
23/04:30am 18.4 17.2 9.7 57 4.6 SE 6 7 3 4 1013.9 1013.7 0.0
23/04:00am 18.5 17.7 9.6 56 4.7 SE 4 6 2 3 1013.9 1013.7 0.0
23/03:30am 18.3 17.6 9.9 58 4.5 SE 4 7 2 4 1014.2 1014.0 0.0
23/03:00am 16.9 15.0 10.5 66 3.4 SSE 11 11 6 6 1014.2 1014.0 0.0
23/02:30am 17.3 15.5 10.7 65 3.5 SSE 11 13 6 7 1014.5 1014.3 0.0
23/02:00am 17.6 15.3 10.5 63 3.8 SSE 13 13 7 7 1014.8 1014.6 0.0
23/01:30am 18.3 16.5 10.7 61 4.1 SSE 11 13 6 7 1015.1 1014.9 0.0
23/01:00am 19.3 17.9 10.8 58 4.6 SSE 9 11 5 6 1015.2 1015.0 0.0
23/12:30am 19.5 18.3 11.5 60 4.4 SE 9 11 5 6 1015.3 1015.1 0.0
23/12:00am 19.5 17.9 11.5 60 4.4 SE 11 13 6 7 1015.4 1015.2 0.0
 
Date/Time
CST
Temp
°C
App
Temp
°C
Dew
Point
°C
Rel
Hum
%
Delta-T
°C
Wind Press
QNH
hPa
Press
MSL
hPa
Rain since
9am
mm
Dir  Spd
km/h
Gust
km/h
Spd
kts
Gust
kts
22/11:30pm 20.1 18.3 10.8 55 5.1 SSE 11 11 6 6 1015.4 1015.2 0.0
22/11:00pm 19.9 17.7 10.9 56 4.9 SSE 13 15 7 8 1015.4 1015.2 0.0
22/10:30pm 21.3 20.0 11.1 52 5.6 SSE 9 11 5 6 1015.3 1015.1 0.0
22/10:00pm 21.6 19.8 11.0 51 5.9 SE 11 13 6 7 1015.2 1015.0 0.0
22/09:30pm 22.1 20.8 11.2 50 6.1 SE 9 11 5 6 1015.2 1015.0 0.0
22/09:00pm 22.3 20.6 11.1 49 6.2 SE 11 13 6 7 1015.2 1015.0 0.0
22/08:30pm 22.0 20.3 11.1 50 6.0 SE 11 13 6 7 1015.0 1014.8 0.0
22/08:00pm 22.7 20.6 11.1 48 6.5 SSE 13 13 7 7 1014.8 1014.6 0.0
22/07:30pm 22.6 20.8 11.0 48 6.4 SSE 11 13 6 7 1014.3 1014.1 0.0
22/07:00pm 22.7 21.0 9.8 44 7.0 SSE 9 13 5 7 1014.1 1013.9 0.0
22/06:30pm 24.4 22.3 9.6 39 8.1 SSE 11 13 6 7 1013.6 1013.4 0.0
22/06:00pm 26.8 23.9 8.3 31 10.0 SE 13 15 7 8 1013.1 1012.9 0.0
22/05:30pm 29.1 25.5 8.2 27 11.4 SE 17 20 9 11 1012.8 1012.6 0.0
22/05:00pm 30.4 25.7 7.6 24 12.4 SSE 22 30 12 16 1012.5 1012.3 0.0
22/04:30pm 30.8 25.6 7.3 23 12.8 SSE 24 32 13 17 1012.2 1012.0 0.0
22/04:00pm 31.9 27.1 7.5 22 13.4 SE 22 35 12 19 1012.1 1011.9 0.0
22/03:30pm 32.3 27.3 7.9 22 13.5 SE 24 35 13 19 1012.1 1011.9 0.0
22/03:00pm 32.4 26.8 7.3 21 13.8 SE 26 37 14 20 1012.4 1012.2 0.0
22/02:30pm 32.1 26.8 7.0 21 13.7 SE 24 37 13 20 1012.8 1012.6 0.0
22/02:00pm 31.6 25.9 6.6 21 13.5 SE 26 39 14 21 1013.2 1013.0 0.0
22/01:30pm 31.8 26.1 6.8 21 13.6 ESE 26 35 14 19 1013.6 1013.4 0.0
22/01:00pm 30.7 25.2 5.9 21 13.2 ESE 24 41 13 22 1014.4 1014.2 0.0
22/12:30pm 30.8 24.2 6.0 21 13.2 ESE 30 41 16 22 1015.0 1014.8 0.0
22/12:15pm 30.1 23.7 5.4 21 13.0 SE 28 48 15 26 1015.2 1015.0 0.0
22/12:00pm 29.2 22.3 4.6 21 12.7 ESE 30 39 16 21 1015.5 1015.3 0.0
22/11:30am 28.3 20.8 4.6 22 12.1 SE 33 46 18 25 1016.1 1015.9 0.0
22/11:00am 28.4 20.7 5.3 23 12.0 SE 35 44 19 24 1016.6 1016.4 0.0
22/10:30am 26.7 19.2 4.5 24 11.2 SE 33 44 18 24 1016.9 1016.7 0.0
22/10:00am 26.1 18.8 4.6 25 10.9 SE 32 43 17 23 1016.9 1016.7 0.0
22/09:30am 24.8 17.9 4.5 27 10.1 ESE 30 41 16 22 1016.5 1016.3 0.0
22/09:00am 24.0 17.5 4.9 29 9.6 SE 28 39 15 21 1016.6 1016.4 0.0
22/08:30am 22.8 18.1 6.1 34 8.5 SE 20 30 11 16 1016.3 1016.1 0.0
22/08:00am 20.6 18.2 8.6 46 6.3 SE 11 17 6 9 1015.8 1015.6 0.0
22/07:30am 17.7 15.5 9.3 58 4.4 SE 11 13 6 7 1015.5 1015.3 0.0
22/07:00am 17.8 15.6 9.4 58 4.4 SE 11 15 6 8 1015.0 1014.8 0.0
22/06:30am 17.5 15.1 10.1 62 3.9 SSE 13 15 7 8 1014.7 1014.5 0.0
22/06:00am 16.9 14.8 11.0 68 3.2 SSE 13 17 7 9 1014.4 1014.2 0.0
22/05:30am 17.2 15.1 11.0 67 3.3 SE 13 15 7 8 1014.1 1013.9 0.0
22/05:00am 18.0 16.0 11.6 66 3.5 SE 13 15 7 8 1013.7 1013.5 0.0
22/04:30am 18.0 16.2 12.0 68 3.3 SE 13 15 7 8 1013.8 1013.6 0.0
22/04:00am 17.3 15.6 12.4 73 2.7 SSE 13 15 7 8 1013.6 1013.4 0.0
22/03:30am 17.4 15.7 12.5 73 2.7 SSE 13 13 7 7 1013.5 1013.3 0.0
22/03:00am 17.6 16.1 13.1 75 2.5 SSE 13 15 7 8 1013.5 1013.3 0.0
22/02:30am 18.2 16.6 12.9 71 3.0 SSE 13 15 7 8 1013.7 1013.5 0.0
22/02:00am 19.0 17.3 13.6 71 3.1 SSE 15 17 8 9 1014.1 1013.9 0.0
22/01:30am 18.0 16.4 12.9 72 2.9 SSE 13 13 7 7 1014.3 1014.1 0.0
22/01:00am 18.8 17.4 13.4 71 3.1 SSE 13 15 7 8 1014.7 1014.5 0.0
22/12:30am 18.7 17.0 13.6 72 2.9 SSE 15 15 8 8 1014.7 1014.5 0.0
22/12:00am 18.4 16.6 13.3 72 2.9 SSE 15 15 8 8 1014.9 1014.7 0.0
 
Date/Time
CST
Temp
°C
App
Temp
°C
Dew
Point
°C
Rel
Hum
%
Delta-T
°C
Wind Press
QNH
hPa
Press
MSL
hPa
Rain since
9am
mm
Dir  Spd
km/h
Gust
km/h
Spd
kts
Gust
kts
21/11:30pm 19.1 17.4 13.7 71 3.1 SSE 15 15 8 8 1015.0 1014.8 0.0
21/11:00pm 19.2 17.6 13.8 71 3.1 SSE 15 15 8 8 1015.2 1015.0 0.0
21/10:30pm 19.8 18.6 14.0 69 3.3 SSE 13 15 7 8 1015.3 1015.1 0.0
21/10:00pm 20.5 19.3 13.9 66 3.8 SSE 13 15 7 8 1015.2 1015.0 0.0
21/09:30pm 21.1 20.0 14.3 65 4.0 SSE 13 13 7 7 1015.0 1014.8 0.0
21/09:00pm 21.6 20.4 14.0 62 4.4 SSE 13 13 7 7 1014.9 1014.7 0.0
21/08:30pm 21.8 21.1 14.2 62 4.4 SSE 11 13 6 7 1014.7 1014.5 0.0
21/08:00pm 22.8 21.9 13.8 57 5.2 SSE 11 11 6 6 1014.4 1014.2 0.0
21/07:30pm 23.4 22.7 13.3 53 5.9 SSE 9 11 5 6 1014.0 1013.8 0.0
21/07:00pm 24.9 23.9 13.5 49 6.7 SSE 11 13 6 7 1013.4 1013.2 0.0
21/06:30pm 26.3 25.1 12.7 43 7.9 SSE 11 13 6 7 1013.1 1012.9 0.0
21/06:00pm 28.8 27.0 12.2 35 9.7 SSE 13 15 7 8 1012.8 1012.6 0.0
21/05:30pm 31.1 28.0 11.5 30 11.4 SE 19 26 10 14 1012.4 1012.2 0.0
21/05:00pm 32.3 28.6 11.5 28 12.2 SE 22 32 12 17 1012.0 1011.8 0.0
21/04:30pm 32.8 28.7 11.3 27 12.6 SE 24 33 13 18 1011.8 1011.6 0.0
21/04:00pm 32.7 27.8 11.3 27 12.5 SSE 28 37 15 20 1011.4 1011.2 0.0
21/03:30pm 33.0 28.2 11.5 27 12.6 SE 28 37 15 20 1011.4 1011.2 0.0
21/03:00pm 32.9 27.9 10.9 26 12.8 SE 28 43 15 23 1011.6 1011.4 0.0
21/02:30pm 33.1 28.5 11.0 26 12.9 ESE 26 39 14 21 1011.8 1011.6 0.0
21/02:00pm 32.7 27.4 11.3 27 12.5 ESE 30 43 16 23 1012.3 1012.1 0.0
21/01:30pm 32.4 27.2 11.6 28 12.2 ESE 30 43 16 23 1012.5 1012.3 0.0
21/01:00pm 32.3 26.7 11.5 28 12.2 ESE 32 41 17 22 1013.0 1012.8 0.0
21/12:30pm 31.6 26.1 11.9 30 11.6 SE 32 39 17 21 1013.5 1013.3 0.0
21/12:00pm 31.4 25.7 11.7 29 11.5 ESE 33 46 18 25 1014.0 1013.8 0.0
21/11:30am 30.2 24.7 10.7 30 11.2 ESE 30 44 16 24 1014.3 1014.1 0.0

Other Formats:

Comma delimited format used in spreadsheet applications
http://www.bom.gov.au/fwo/IDD60801/IDD60801.94128.axf

JavaScript Object Notation format (JSON) in row-major order
http://www.bom.gov.au/fwo/IDD60801/IDD60801.94128.json